Kremlin, Oklahoma
Current Conditions -  °F | °C
As of 2:55 AM on Saturday 25 Oct 2014 (Local Time) from KWDG Reporting Station
Haze Haze  
Wind Chill: 57°   Ceiling: NA
Heat Index: 57°   Visibility: 3mi
Dew Point: 57°   Wind: 3mph
Humidity: 100%   Direction: 180°S
Pressure: 30.02"   Gusts: NA
Location:  36.55°N, 97.83°W
Report Text: KWDG 250755Z AUTO 18003KT 3SM BR 14/14 A3002 RMK AO2
Loading
Personal Weather Stations






























Interactive Weather Map
Tropical Storm Tracking
New forecast layout! Learn more

10-Day Weather Forecast

Advertisements
Track Severe Weather on mobile